sensor_id;sensor_type;location;lat;lon;timestamp;P1;durP1;ratioP1;P2;durP2;ratioP2
55222;SDS011;41090;48.632;12.428;2023-05-10T00:00:26;5.77;;;5.23;;
55222;SDS011;41090;48.632;12.428;2023-05-10T00:02:51;5.60;;;5.07;;
55222;SDS011;41090;48.632;12.428;2023-05-10T00:05:18;6.43;;;5.83;;
55222;SDS011;41090;48.632;12.428;2023-05-10T00:07:43;5.70;;;5.20;;
55222;SDS011;41090;48.632;12.428;2023-05-10T00:10:10;7.20;;;6.17;;
55222;SDS011;41090;48.632;12.428;2023-05-10T00:12:35;5.83;;;5.33;;
55222;SDS011;41090;48.632;12.428;2023-05-10T00:15:00;5.63;;;5.10;;
55222;SDS011;41090;48.632;12.428;2023-05-10T00:17:26;6.77;;;5.77;;
55222;SDS011;41090;48.632;12.428;2023-05-10T00:20:00;6.07;;;5.47;;
55222;SDS011;41090;48.632;12.428;2023-05-10T00:22:26;7.83;;;6.17;;
55222;SDS011;41090;48.632;12.428;2023-05-10T00:24:51;7.10;;;6.07;;
55222;SDS011;41090;48.632;12.428;2023-05-10T00:27:16;6.80;;;6.20;;
55222;SDS011;41090;48.632;12.428;2023-05-10T00:29:41;6.50;;;5.90;;
55222;SDS011;41090;48.632;12.428;2023-05-10T00:32:06;7.10;;;6.50;;
55222;SDS011;41090;48.632;12.428;2023-05-10T00:34:32;7.03;;;6.23;;
55222;SDS011;41090;48.632;12.428;2023-05-10T00:36:57;6.67;;;5.97;;
55222;SDS011;41090;48.632;12.428;2023-05-10T00:39:22;5.63;;;5.13;;
55222;SDS011;41090;48.632;12.428;2023-05-10T00:41:48;6.50;;;5.90;;
55222;SDS011;41090;48.632;12.428;2023-05-10T00:44:13;6.67;;;5.97;;
55222;SDS011;41090;48.632;12.428;2023-05-10T00:46:38;7.60;;;6.00;;
55222;SDS011;41090;48.632;12.428;2023-05-10T00:49:03;6.50;;;5.90;;
55222;SDS011;41090;48.632;12.428;2023-05-10T00:51:29;6.27;;;5.70;;
55222;SDS011;41090;48.632;12.428;2023-05-10T00:53:56;6.57;;;5.87;;
55222;SDS011;41090;48.632;12.428;2023-05-10T00:56:21;6.73;;;5.97;;
55222;SDS011;41090;48.632;12.428;2023-05-10T00:58:48;6.50;;;5.90;;
55222;SDS011;41090;48.632;12.428;2023-05-10T01:01:13;6.23;;;5.70;;
55222;SDS011;41090;48.632;12.428;2023-05-10T01:03:39;6.80;;;6.20;;
55222;SDS011;41090;48.632;12.428;2023-05-10T01:06:04;7.07;;;6.47;;
55222;SDS011;41090;48.632;12.428;2023-05-10T01:08:30;6.40;;;5.80;;
55222;SDS011;41090;48.632;12.428;2023-05-10T01:10:55;7.37;;;6.20;;
55222;SDS011;41090;48.632;12.428;2023-05-10T01:15:52;5.67;;;5.17;;
55222;SDS011;41090;48.632;12.428;2023-05-10T01:18:18;6.20;;;5.60;;
55222;SDS011;41090;48.632;12.428;2023-05-10T01:20:45;6.97;;;6.37;;
55222;SDS011;41090;48.632;12.428;2023-05-10T01:37:04;7.00;;;6.30;;
55222;SDS011;41090;48.632;12.428;2023-05-10T01:39:24;8.43;;;6.30;;
55222;SDS011;41090;48.632;12.428;2023-05-10T01:46:48;7.17;;;6.57;;
55222;SDS011;41090;48.632;12.428;2023-05-10T01:49:25;7.53;;;6.93;;
55222;SDS011;41090;48.632;12.428;2023-05-10T01:51:52;7.63;;;6.60;;
55222;SDS011;41090;48.632;12.428;2023-05-10T01:54:19;6.77;;;6.00;;
55222;SDS011;41090;48.632;12.428;2023-05-10T01:56:46;8.30;;;7.00;;
55222;SDS011;41090;48.632;12.428;2023-05-10T01:59:13;7.60;;;6.83;;
55222;SDS011;41090;48.632;12.428;2023-05-10T02:01:40;8.27;;;7.57;;
55222;SDS011;41090;48.632;12.428;2023-05-10T02:04:07;8.37;;;7.57;;
55222;SDS011;41090;48.632;12.428;2023-05-10T02:06:33;8.13;;;7.33;;
55222;SDS011;41090;48.632;12.428;2023-05-10T02:09:00;7.43;;;6.73;;
55222;SDS011;41090;48.632;12.428;2023-05-10T02:11:25;8.10;;;7.30;;
55222;SDS011;41090;48.632;12.428;2023-05-10T02:13:55;7.67;;;6.90;;
55222;SDS011;41090;48.632;12.428;2023-05-10T02:16:23;9.87;;;7.97;;
55222;SDS011;41090;48.632;12.428;2023-05-10T02:18:50;8.60;;;7.80;;
55222;SDS011;41090;48.632;12.428;2023-05-10T02:21:17;8.63;;;7.63;;
55222;SDS011;41090;48.632;12.428;2023-05-10T02:23:43;11.17;;;8.23;;
55222;SDS011;41090;48.632;12.428;2023-05-10T02:26:15;9.13;;;8.23;;
55222;SDS011;41090;48.632;12.428;2023-05-10T02:28:41;8.40;;;7.70;;
55222;SDS011;41090;48.632;12.428;2023-05-10T02:31:07;8.83;;;6.83;;
55222;SDS011;41090;48.632;12.428;2023-05-10T02:33:34;7.90;;;7.20;;
55222;SDS011;41090;48.632;12.428;2023-05-10T02:36:00;8.30;;;7.50;;
55222;SDS011;41090;48.632;12.428;2023-05-10T02:38:27;9.30;;;7.80;;
55222;SDS011;41090;48.632;12.428;2023-05-10T02:40:53;9.90;;;9.00;;
55222;SDS011;41090;48.632;12.428;2023-05-10T02:43:18;11.23;;;8.30;;
55222;SDS011;41090;48.632;12.428;2023-05-10T02:45:46;9.70;;;8.70;;
55222;SDS011;41090;48.632;12.428;2023-05-10T02:48:12;8.97;;;8.17;;
55222;SDS011;41090;48.632;12.428;2023-05-10T02:50:38;10.37;;;8.23;;
55222;SDS011;41090;48.632;12.428;2023-05-10T02:53:08;8.83;;;8.03;;
55222;SDS011;41090;48.632;12.428;2023-05-10T02:55:36;8.40;;;7.60;;
55222;SDS011;41090;48.632;12.428;2023-05-10T02:58:02;8.77;;;7.93;;
55222;SDS011;41090;48.632;12.428;2023-05-10T03:00:28;9.07;;;8.17;;
55222;SDS011;41090;48.632;12.428;2023-05-10T03:02:53;8.63;;;7.73;;
55222;SDS011;41090;48.632;12.428;2023-05-10T03:05:18;8.83;;;8.03;;
55222;SDS011;41090;48.632;12.428;2023-05-10T03:07:44;8.70;;;7.90;;
55222;SDS011;41090;48.632;12.428;2023-05-10T03:10:10;9.37;;;8.53;;
55222;SDS011;41090;48.632;12.428;2023-05-10T03:20:04;11.10;;;9.47;;
55222;SDS011;41090;48.632;12.428;2023-05-10T03:22:32;11.17;;;9.27;;
55222;SDS011;41090;48.632;12.428;2023-05-10T03:25:00;9.80;;;8.70;;
55222;SDS011;41090;48.632;12.428;2023-05-10T03:27:29;9.17;;;8.37;;
55222;SDS011;41090;48.632;12.428;2023-05-10T03:29:54;10.03;;;9.13;;
55222;SDS011;41090;48.632;12.428;2023-05-10T03:32:20;9.30;;;8.30;;
55222;SDS011;41090;48.632;12.428;2023-05-10T03:34:46;7.87;;;7.17;;
55222;SDS011;41090;48.632;12.428;2023-05-10T03:37:11;9.13;;;8.23;;
55222;SDS011;41090;48.632;12.428;2023-05-10T03:39:36;10.23;;;9.23;;
55222;SDS011;41090;48.632;12.428;2023-05-10T03:42:02;9.90;;;8.90;;
55222;SDS011;41090;48.632;12.428;2023-05-10T03:44:27;9.47;;;8.50;;
55222;SDS011;41090;48.632;12.428;2023-05-10T03:46:52;9.53;;;8.67;;
55222;SDS011;41090;48.632;12.428;2023-05-10T03:49:17;10.10;;;7.93;;
55222;SDS011;41090;48.632;12.428;2023-05-10T03:51:43;9.13;;;8.27;;
55222;SDS011;41090;48.632;12.428;2023-05-10T03:54:08;9.10;;;8.33;;
55222;SDS011;41090;48.632;12.428;2023-05-10T03:56:33;8.93;;;8.03;;
55222;SDS011;41090;48.632;12.428;2023-05-10T03:58:58;8.63;;;7.83;;
55222;SDS011;41090;48.632;12.428;2023-05-10T04:01:26;9.03;;;8.23;;
55222;SDS011;41090;48.632;12.428;2023-05-10T04:03:51;9.53;;;8.53;;
55222;SDS011;41090;48.632;12.428;2023-05-10T04:06:16;9.87;;;8.97;;
55222;SDS011;41090;48.632;12.428;2023-05-10T04:08:41;9.73;;;8.73;;
55222;SDS011;41090;48.632;12.428;2023-05-10T04:11:07;10.10;;;9.10;;
55222;SDS011;41090;48.632;12.428;2023-05-10T04:13:33;9.83;;;9.00;;
55222;SDS011;41090;48.632;12.428;2023-05-10T04:15:58;9.50;;;8.70;;
55222;SDS011;41090;48.632;12.428;2023-05-10T04:18:23;9.93;;;8.93;;
55222;SDS011;41090;48.632;12.428;2023-05-10T04:20:49;9.30;;;8.50;;
55222;SDS011;41090;48.632;12.428;2023-05-10T04:23:15;10.23;;;8.80;;
55222;SDS011;41090;48.632;12.428;2023-05-10T04:25:41;10.40;;;9.37;;
55222;SDS011;41090;48.632;12.428;2023-05-10T04:28:07;9.50;;;8.60;;
55222;SDS011;41090;48.632;12.428;2023-05-10T04:30:32;9.70;;;8.80;;
55222;SDS011;41090;48.632;12.428;2023-05-10T04:32:58;9.00;;;8.20;;
55222;SDS011;41090;48.632;12.428;2023-05-10T04:35:23;9.40;;;8.50;;
55222;SDS011;41090;48.632;12.428;2023-05-10T04:37:50;8.87;;;8.07;;
55222;SDS011;41090;48.632;12.428;2023-05-10T04:40:15;9.70;;;8.70;;
55222;SDS011;41090;48.632;12.428;2023-05-10T04:42:40;8.60;;;7.80;;
55222;SDS011;41090;48.632;12.428;2023-05-10T04:45:09;8.80;;;7.97;;
55222;SDS011;41090;48.632;12.428;2023-05-10T04:47:34;7.43;;;6.80;;
55222;SDS011;41090;48.632;12.428;2023-05-10T04:50:00;8.40;;;7.57;;
55222;SDS011;41090;48.632;12.428;2023-05-10T04:52:27;7.00;;;6.37;;
55222;SDS011;41090;48.632;12.428;2023-05-10T04:54:53;7.33;;;6.63;;
55222;SDS011;41090;48.632;12.428;2023-05-10T04:57:20;7.73;;;7.03;;
55222;SDS011;41090;48.632;12.428;2023-05-10T04:59:46;7.50;;;6.77;;
55222;SDS011;41090;48.632;12.428;2023-05-10T05:02:11;7.43;;;6.70;;
55222;SDS011;41090;48.632;12.428;2023-05-10T05:04:36;5.60;;;5.10;;
55222;SDS011;41090;48.632;12.428;2023-05-10T05:07:02;6.80;;;6.20;;
55222;SDS011;41090;48.632;12.428;2023-05-10T05:09:27;6.67;;;6.07;;
55222;SDS011;41090;48.632;12.428;2023-05-10T05:11:52;6.50;;;5.90;;
55222;SDS011;41090;48.632;12.428;2023-05-10T05:14:17;7.13;;;5.87;;
55222;SDS011;41090;48.632;12.428;2023-05-10T05:16:43;7.40;;;6.53;;
55222;SDS011;41090;48.632;12.428;2023-05-10T05:19:08;7.30;;;6.33;;
55222;SDS011;41090;48.632;12.428;2023-05-10T05:21:33;6.10;;;5.60;;
55222;SDS011;41090;48.632;12.428;2023-05-10T05:23:58;7.83;;;6.10;;
55222;SDS011;41090;48.632;12.428;2023-05-10T05:26:23;7.17;;;5.50;;
55222;SDS011;41090;48.632;12.428;2023-05-10T05:28:49;5.87;;;5.37;;
55222;SDS011;41090;48.632;12.428;2023-05-10T05:31:17;6.10;;;5.40;;
55222;SDS011;41090;48.632;12.428;2023-05-10T05:33:42;5.10;;;4.60;;
55222;SDS011;41090;48.632;12.428;2023-05-10T05:38:44;3.20;;;2.60;;
55222;SDS011;41090;48.632;12.428;2023-05-10T05:41:10;3.30;;;3.00;;
55222;SDS011;41090;48.632;12.428;2023-05-10T05:43:35;2.50;;;2.30;;
55222;SDS011;41090;48.632;12.428;2023-05-10T05:46:00;2.60;;;2.40;;
55222;SDS011;41090;48.632;12.428;2023-05-10T05:48:25;2.47;;;2.27;;
55222;SDS011;41090;48.632;12.428;2023-05-10T05:50:53;2.73;;;2.20;;
55222;SDS011;41090;48.632;12.428;2023-05-10T05:53:19;2.30;;;2.10;;
55222;SDS011;41090;48.632;12.428;2023-05-10T05:55:54;1.83;;;1.73;;
55222;SDS011;41090;48.632;12.428;2023-05-10T05:58:20;1.80;;;1.70;;
55222;SDS011;41090;48.632;12.428;2023-05-10T06:00:45;2.67;;;1.80;;
55222;SDS011;41090;48.632;12.428;2023-05-10T06:03:10;1.60;;;1.50;;
55222;SDS011;41090;48.632;12.428;2023-05-10T06:05:36;2.10;;;1.90;;
55222;SDS011;41090;48.632;12.428;2023-05-10T06:08:01;2.20;;;1.60;;
55222;SDS011;41090;48.632;12.428;2023-05-10T06:10:26;2.07;;;1.93;;
55222;SDS011;41090;48.632;12.428;2023-05-10T06:12:51;4.07;;;3.67;;
55222;SDS011;41090;48.632;12.428;2023-05-10T06:15:17;4.00;;;3.60;;
55222;SDS011;41090;48.632;12.428;2023-05-10T06:17:43;4.47;;;3.70;;
55222;SDS011;41090;48.632;12.428;2023-05-10T06:20:09;3.23;;;2.90;;
55222;SDS011;41090;48.632;12.428;2023-05-10T06:22:34;2.90;;;2.60;;
55222;SDS011;41090;48.632;12.428;2023-05-10T06:25:00;4.10;;;2.30;;
55222;SDS011;41090;48.632;12.428;2023-05-10T06:27:25;3.17;;;2.20;;
55222;SDS011;41090;48.632;12.428;2023-05-10T06:29:50;3.70;;;2.20;;
55222;SDS011;41090;48.632;12.428;2023-05-10T06:32:16;1.90;;;1.80;;
55222;SDS011;41090;48.632;12.428;2023-05-10T06:34:41;1.97;;;1.77;;
55222;SDS011;41090;48.632;12.428;2023-05-10T06:37:08;1.73;;;1.30;;
55222;SDS011;41090;48.632;12.428;2023-05-10T06:39:33;1.67;;;1.40;;
55222;SDS011;41090;48.632;12.428;2023-05-10T06:41:58;2.17;;;1.80;;
55222;SDS011;41090;48.632;12.428;2023-05-10T06:44:23;2.90;;;1.70;;
55222;SDS011;41090;48.632;12.428;2023-05-10T06:46:49;1.70;;;1.60;;
55222;SDS011;41090;48.632;12.428;2023-05-10T06:49:14;1.83;;;1.73;;
55222;SDS011;41090;48.632;12.428;2023-05-10T06:51:40;2.20;;;2.00;;
55222;SDS011;41090;48.632;12.428;2023-05-10T06:56:36;3.23;;;2.07;;
55222;SDS011;41090;48.632;12.428;2023-05-10T06:59:02;3.27;;;2.20;;
55222;SDS011;41090;48.632;12.428;2023-05-10T07:01:27;2.53;;;2.30;;
55222;SDS011;41090;48.632;12.428;2023-05-10T07:03:53;2.57;;;2.20;;
55222;SDS011;41090;48.632;12.428;2023-05-10T07:06:18;2.60;;;2.40;;
55222;SDS011;41090;48.632;12.428;2023-05-10T07:08:43;2.33;;;2.20;;
55222;SDS011;41090;48.632;12.428;2023-05-10T07:11:08;2.87;;;2.50;;
55222;SDS011;41090;48.632;12.428;2023-05-10T07:13:35;4.10;;;2.70;;
55222;SDS011;41090;48.632;12.428;2023-05-10T07:16:01;3.10;;;2.80;;
55222;SDS011;41090;48.632;12.428;2023-05-10T07:18:30;2.93;;;2.63;;
55222;SDS011;41090;48.632;12.428;2023-05-10T07:20:56;2.60;;;2.40;;
55222;SDS011;41090;48.632;12.428;2023-05-10T07:23:21;3.43;;;3.13;;
55222;SDS011;41090;48.632;12.428;2023-05-10T07:25:47;2.43;;;2.23;;
55222;SDS011;41090;48.632;12.428;2023-05-10T07:28:13;2.73;;;1.87;;
55222;SDS011;41090;48.632;12.428;2023-05-10T07:30:38;2.20;;;2.00;;
55222;SDS011;41090;48.632;12.428;2023-05-10T07:33:04;1.33;;;1.23;;
55222;SDS011;41090;48.632;12.428;2023-05-10T07:35:29;2.17;;;1.43;;
55222;SDS011;41090;48.632;12.428;2023-05-10T07:37:54;2.03;;;1.57;;
55222;SDS011;41090;48.632;12.428;2023-05-10T07:40:20;2.97;;;2.07;;
55222;SDS011;41090;48.632;12.428;2023-05-10T07:42:45;1.53;;;1.43;;
55222;SDS011;41090;48.632;12.428;2023-05-10T07:45:10;1.80;;;1.57;;
55222;SDS011;41090;48.632;12.428;2023-05-10T07:47:35;1.47;;;1.30;;
55222;SDS011;41090;48.632;12.428;2023-05-10T07:50:01;3.27;;;1.70;;
55222;SDS011;41090;48.632;12.428;2023-05-10T07:52:26;2.13;;;1.60;;
55222;SDS011;41090;48.632;12.428;2023-05-10T07:54:53;1.50;;;1.40;;
55222;SDS011;41090;48.632;12.428;2023-05-10T07:57:19;1.97;;;1.40;;
55222;SDS011;41090;48.632;12.428;2023-05-10T07:59:44;1.77;;;1.40;;
55222;SDS011;41090;48.632;12.428;2023-05-10T08:02:10;1.60;;;1.33;;
55222;SDS011;41090;48.632;12.428;2023-05-10T08:04:35;1.77;;;1.43;;
55222;SDS011;41090;48.632;12.428;2023-05-10T08:07:03;3.13;;;1.30;;
55222;SDS011;41090;48.632;12.428;2023-05-10T08:09:33;1.30;;;1.20;;
55222;SDS011;41090;48.632;12.428;2023-05-10T08:11:58;1.53;;;1.30;;
55222;SDS011;41090;48.632;12.428;2023-05-10T08:14:24;1.53;;;1.30;;
55222;SDS011;41090;48.632;12.428;2023-05-10T08:16:50;3.90;;;1.80;;
55222;SDS011;41090;48.632;12.428;2023-05-10T08:19:15;1.50;;;1.40;;
55222;SDS011;41090;48.632;12.428;2023-05-10T08:21:44;1.97;;;1.30;;
55222;SDS011;41090;48.632;12.428;2023-05-10T08:24:09;3.40;;;1.50;;
55222;SDS011;41090;48.632;12.428;2023-05-10T08:26:34;1.50;;;1.40;;
55222;SDS011;41090;48.632;12.428;2023-05-10T08:28:59;1.30;;;1.20;;
55222;SDS011;41090;48.632;12.428;2023-05-10T08:31:25;1.83;;;1.20;;
55222;SDS011;41090;48.632;12.428;2023-05-10T08:33:52;1.90;;;1.23;;
55222;SDS011;41090;48.632;12.428;2023-05-10T08:36:18;1.67;;;1.30;;
55222;SDS011;41090;48.632;12.428;2023-05-10T08:38:46;1.57;;;1.30;;
55222;SDS011;41090;48.632;12.428;2023-05-10T08:41:11;1.53;;;1.43;;
55222;SDS011;41090;48.632;12.428;2023-05-10T08:43:37;3.20;;;1.60;;
55222;SDS011;41090;48.632;12.428;2023-05-10T08:46:02;1.67;;;1.50;;
55222;SDS011;41090;48.632;12.428;2023-05-10T08:48:30;2.10;;;1.90;;
55222;SDS011;41090;48.632;12.428;2023-05-10T08:50:58;1.80;;;1.70;;
55222;SDS011;41090;48.632;12.428;2023-05-10T08:53:25;2.27;;;1.80;;
55222;SDS011;41090;48.632;12.428;2023-05-10T08:55:52;2.70;;;1.80;;
55222;SDS011;41090;48.632;12.428;2023-05-10T08:58:17;2.20;;;2.10;;
55222;SDS011;41090;48.632;12.428;2023-05-10T09:00:46;2.53;;;2.33;;
55222;SDS011;41090;48.632;12.428;2023-05-10T09:03:12;2.77;;;2.53;;
55222;SDS011;41090;48.632;12.428;2023-05-10T09:05:37;3.37;;;2.97;;
55222;SDS011;41090;48.632;12.428;2023-05-10T09:08:10;3.20;;;3.00;;
55222;SDS011;41090;48.632;12.428;2023-05-10T09:10:36;3.10;;;2.90;;
55222;SDS011;41090;48.632;12.428;2023-05-10T09:13:03;3.17;;;2.97;;
55222;SDS011;41090;48.632;12.428;2023-05-10T09:15:28;3.00;;;2.80;;
55222;SDS011;41090;48.632;12.428;2023-05-10T09:17:55;2.80;;;2.60;;
55222;SDS011;41090;48.632;12.428;2023-05-10T09:20:20;3.30;;;3.10;;
55222;SDS011;41090;48.632;12.428;2023-05-10T09:22:46;2.90;;;2.70;;
55222;SDS011;41090;48.632;12.428;2023-05-10T09:25:12;3.00;;;2.70;;
55222;SDS011;41090;48.632;12.428;2023-05-10T09:27:38;2.50;;;2.40;;
55222;SDS011;41090;48.632;12.428;2023-05-10T09:30:04;2.40;;;2.20;;
55222;SDS011;41090;48.632;12.428;2023-05-10T09:35:08;2.30;;;2.10;;
55222;SDS011;41090;48.632;12.428;2023-05-10T09:37:34;2.30;;;2.10;;
55222;SDS011;41090;48.632;12.428;2023-05-10T09:39:59;1.93;;;1.83;;
55222;SDS011;41090;48.632;12.428;2023-05-10T09:42:24;2.27;;;1.80;;
55222;SDS011;41090;48.632;12.428;2023-05-10T09:44:50;2.23;;;1.80;;
55222;SDS011;41090;48.632;12.428;2023-05-10T09:47:18;2.40;;;2.20;;
55222;SDS011;41090;48.632;12.428;2023-05-10T09:49:44;5.57;;;5.00;;
55222;SDS011;41090;48.632;12.428;2023-05-10T09:52:09;4.33;;;3.47;;
55222;SDS011;41090;48.632;12.428;2023-05-10T09:54:37;4.43;;;3.77;;
55222;SDS011;41090;48.632;12.428;2023-05-10T09:57:02;4.63;;;4.03;;
55222;SDS011;41090;48.632;12.428;2023-05-10T09:59:28;5.40;;;4.15;;
55222;SDS011;41090;48.632;12.428;2023-05-10T10:01:57;2.83;;;2.63;;
55222;SDS011;41090;48.632;12.428;2023-05-10T10:04:23;1.83;;;1.50;;
55222;SDS011;41090;48.632;12.428;2023-05-10T10:06:58;1.60;;;1.50;;
55222;SDS011;41090;48.632;12.428;2023-05-10T10:09:23;3.00;;;2.00;;
55222;SDS011;41090;48.632;12.428;2023-05-10T10:11:49;1.67;;;1.40;;
55222;SDS011;41090;48.632;12.428;2023-05-10T10:14:14;1.60;;;1.50;;
55222;SDS011;41090;48.632;12.428;2023-05-10T10:16:39;1.70;;;1.53;;
55222;SDS011;41090;48.632;12.428;2023-05-10T10:19:05;1.50;;;1.40;;
55222;SDS011;41090;48.632;12.428;2023-05-10T10:21:31;1.73;;;1.40;;
55222;SDS011;41090;48.632;12.428;2023-05-10T10:23:56;1.77;;;1.50;;
55222;SDS011;41090;48.632;12.428;2023-05-10T10:26:21;1.90;;;1.57;;
55222;SDS011;41090;48.632;12.428;2023-05-10T10:28:49;13.63;;;9.30;;
55222;SDS011;41090;48.632;12.428;2023-05-10T10:36:13;3.70;;;2.17;;
55222;SDS011;41090;48.632;12.428;2023-05-10T10:41:33;1.40;;;1.30;;
55222;SDS011;41090;48.632;12.428;2023-05-10T10:47:28;1.25;;;1.00;;
55222;SDS011;41090;48.632;12.428;2023-05-10T10:49:31;1.00;;;1.00;;
55222;SDS011;41090;48.632;12.428;2023-05-10T10:52:13;1.73;;;1.03;;
55222;SDS011;41090;48.632;12.428;2023-05-10T10:54:38;1.23;;;1.00;;
55222;SDS011;41090;48.632;12.428;2023-05-10T11:02:43;1.53;;;1.20;;
55222;SDS011;41090;48.632;12.428;2023-05-10T11:07:55;1.30;;;1.20;;
55222;SDS011;41090;48.632;12.428;2023-05-10T11:10:22;1.27;;;1.10;;
55222;SDS011;41090;48.632;12.428;2023-05-10T11:13:00;2.80;;;1.20;;
55222;SDS011;41090;48.632;12.428;2023-05-10T11:20:59;1.20;;;1.10;;
55222;SDS011;41090;48.632;12.428;2023-05-10T11:25:56;1.20;;;1.10;;
55222;SDS011;41090;48.632;12.428;2023-05-10T11:28:28;2.20;;;1.50;;
55222;SDS011;41090;48.632;12.428;2023-05-10T11:30:53;1.63;;;1.53;;
55222;SDS011;41090;48.632;12.428;2023-05-10T11:33:20;1.70;;;1.60;;
55222;SDS011;41090;48.632;12.428;2023-05-10T11:35:45;3.10;;;2.80;;
55222;SDS011;41090;48.632;12.428;2023-05-10T11:38:12;3.67;;;3.30;;
55222;SDS011;41090;48.632;12.428;2023-05-10T11:40:38;3.57;;;2.77;;
55222;SDS011;41090;48.632;12.428;2023-05-10T11:43:05;2.80;;;1.60;;
55222;SDS011;41090;48.632;12.428;2023-05-10T11:45:33;1.37;;;1.27;;
55222;SDS011;41090;48.632;12.428;2023-05-10T11:47:59;2.17;;;1.50;;
55222;SDS011;41090;48.632;12.428;2023-05-10T11:50:25;1.83;;;1.50;;
55222;SDS011;41090;48.632;12.428;2023-05-10T11:52:57;2.00;;;1.30;;
55222;SDS011;41090;48.632;12.428;2023-05-10T11:55:23;2.13;;;1.50;;
55222;SDS011;41090;48.632;12.428;2023-05-10T11:57:53;1.47;;;1.37;;
55222;SDS011;41090;48.632;12.428;2023-05-10T12:00:20;2.03;;;1.30;;
55222;SDS011;41090;48.632;12.428;2023-05-10T12:02:46;2.07;;;1.40;;
55222;SDS011;41090;48.632;12.428;2023-05-10T12:05:11;4.07;;;2.20;;
55222;SDS011;41090;48.632;12.428;2023-05-10T12:07:38;1.90;;;1.80;;
55222;SDS011;41090;48.632;12.428;2023-05-10T12:10:10;3.00;;;1.90;;
55222;SDS011;41090;48.632;12.428;2023-05-10T12:12:43;2.70;;;2.10;;
55222;SDS011;41090;48.632;12.428;2023-05-10T12:15:13;2.13;;;1.60;;
55222;SDS011;41090;48.632;12.428;2023-05-10T12:17:41;1.87;;;1.77;;
55222;SDS011;41090;48.632;12.428;2023-05-10T12:20:23;3.00;;;1.80;;
55222;SDS011;41090;48.632;12.428;2023-05-10T12:22:53;3.03;;;1.70;;
55222;SDS011;41090;48.632;12.428;2023-05-10T12:25:19;3.37;;;1.87;;
55222;SDS011;41090;48.632;12.428;2023-05-10T12:27:51;3.10;;;1.80;;
55222;SDS011;41090;48.632;12.428;2023-05-10T12:30:23;3.40;;;1.40;;
55222;SDS011;41090;48.632;12.428;2023-05-10T12:32:49;2.23;;;1.87;;
55222;SDS011;41090;48.632;12.428;2023-05-10T12:35:14;2.67;;;1.60;;
55222;SDS011;41090;48.632;12.428;2023-05-10T12:37:42;1.80;;;1.70;;
55222;SDS011;41090;48.632;12.428;2023-05-10T12:40:08;1.87;;;1.60;;
55222;SDS011;41090;48.632;12.428;2023-05-10T12:42:34;1.90;;;1.80;;
55222;SDS011;41090;48.632;12.428;2023-05-10T12:45:00;3.03;;;1.80;;
55222;SDS011;41090;48.632;12.428;2023-05-10T12:47:26;2.55;;;2.17;;
55222;SDS011;41090;48.632;12.428;2023-05-10T12:49:51;3.05;;;2.00;;
55222;SDS011;41090;48.632;12.428;2023-05-10T12:52:16;4.35;;;2.00;;
55222;SDS011;41090;48.632;12.428;2023-05-10T12:54:41;2.67;;;2.25;;
55222;SDS011;41090;48.632;12.428;2023-05-10T12:57:07;3.25;;;2.20;;
55222;SDS011;41090;48.632;12.428;2023-05-10T12:59:32;2.17;;;1.85;;
55222;SDS011;41090;48.632;12.428;2023-05-10T13:01:57;3.05;;;2.40;;
55222;SDS011;41090;48.632;12.428;2023-05-10T13:04:23;6.13;;;2.33;;
55222;SDS011;41090;48.632;12.428;2023-05-10T13:06:48;2.50;;;2.20;;
55222;SDS011;41090;48.632;12.428;2023-05-10T13:09:13;4.18;;;2.25;;
55222;SDS011;41090;48.632;12.428;2023-05-10T13:11:39;3.45;;;1.85;;
55222;SDS011;41090;48.632;12.428;2023-05-10T13:14:04;1.88;;;1.73;;
55222;SDS011;41090;48.632;12.428;2023-05-10T13:16:30;2.20;;;1.67;;
55222;SDS011;41090;48.632;12.428;2023-05-10T13:18:56;2.30;;;1.60;;
55222;SDS011;41090;48.632;12.428;2023-05-10T13:21:21;1.50;;;1.35;;
55222;SDS011;41090;48.632;12.428;2023-05-10T13:23:46;1.77;;;1.52;;
55222;SDS011;41090;48.632;12.428;2023-05-10T13:26:11;1.38;;;1.27;;
55222;SDS011;41090;48.632;12.428;2023-05-10T13:28:37;1.88;;;1.20;;
55222;SDS011;41090;48.632;12.428;2023-05-10T13:31:03;1.23;;;1.10;;
55222;SDS011;41090;48.632;12.428;2023-05-10T13:33:29;2.40;;;1.27;;
55222;SDS011;41090;48.632;12.428;2023-05-10T13:35:55;1.25;;;1.13;;
55222;SDS011;41090;48.632;12.428;2023-05-10T13:38:20;1.48;;;1.20;;
55222;SDS011;41090;48.632;12.428;2023-05-10T13:40:45;1.20;;;1.10;;
55222;SDS011;41090;48.632;12.428;2023-05-10T13:43:11;1.15;;;1.05;;
55222;SDS011;41090;48.632;12.428;2023-05-10T13:45:36;1.27;;;1.17;;
55222;SDS011;41090;48.632;12.428;2023-05-10T13:48:01;1.20;;;1.10;;
55222;SDS011;41090;48.632;12.428;2023-05-10T13:50:27;1.05;;;0.95;;
55222;SDS011;41090;48.632;12.428;2023-05-10T13:52:52;1.60;;;1.20;;
55222;SDS011;41090;48.632;12.428;2023-05-10T13:55:17;1.63;;;1.20;;
55222;SDS011;41090;48.632;12.428;2023-05-10T13:57:43;1.75;;;1.20;;
55222;SDS011;41090;48.632;12.428;2023-05-10T14:00:09;1.73;;;1.27;;
55222;SDS011;41090;48.632;12.428;2023-05-10T14:02:35;3.03;;;1.20;;
55222;SDS011;41090;48.632;12.428;2023-05-10T14:05:00;1.33;;;1.20;;
55222;SDS011;41090;48.632;12.428;2023-05-10T14:07:25;1.80;;;1.40;;
55222;SDS011;41090;48.632;12.428;2023-05-10T14:09:50;2.40;;;1.30;;
55222;SDS011;41090;48.632;12.428;2023-05-10T14:12:16;1.30;;;1.20;;
55222;SDS011;41090;48.632;12.428;2023-05-10T14:14:41;1.50;;;1.40;;
55222;SDS011;41090;48.632;12.428;2023-05-10T14:17:06;1.27;;;1.17;;
55222;SDS011;41090;48.632;12.428;2023-05-10T14:19:32;2.07;;;1.23;;
55222;SDS011;41090;48.632;12.428;2023-05-10T14:21:58;1.40;;;1.30;;
55222;SDS011;41090;48.632;12.428;2023-05-10T14:24:23;1.40;;;1.13;;
55222;SDS011;41090;48.632;12.428;2023-05-10T14:26:49;2.20;;;2.00;;
55222;SDS011;41090;48.632;12.428;2023-05-10T14:29:14;2.00;;;1.80;;
55222;SDS011;41090;48.632;12.428;2023-05-10T14:31:39;2.30;;;2.10;;
55222;SDS011;41090;48.632;12.428;2023-05-10T14:34:05;2.27;;;1.80;;
55222;SDS011;41090;48.632;12.428;2023-05-10T14:36:30;3.17;;;1.60;;
55222;SDS011;41090;48.632;12.428;2023-05-10T14:38:56;1.73;;;1.63;;
55222;SDS011;41090;48.632;12.428;2023-05-10T14:41:21;2.70;;;1.90;;
55222;SDS011;41090;48.632;12.428;2023-05-10T14:43:46;2.30;;;2.00;;
55222;SDS011;41090;48.632;12.428;2023-05-10T14:46:12;2.50;;;2.30;;
55222;SDS011;41090;48.632;12.428;2023-05-10T14:48:37;2.67;;;2.47;;
55222;SDS011;41090;48.632;12.428;2023-05-10T14:51:02;2.67;;;2.47;;
55222;SDS011;41090;48.632;12.428;2023-05-10T14:53:28;4.37;;;2.30;;
55222;SDS011;41090;48.632;12.428;2023-05-10T14:55:53;4.07;;;2.63;;
55222;SDS011;41090;48.632;12.428;2023-05-10T14:58:19;2.20;;;2.00;;
55222;SDS011;41090;48.632;12.428;2023-05-10T15:00:44;2.03;;;1.80;;
55222;SDS011;41090;48.632;12.428;2023-05-10T15:03:10;4.70;;;1.80;;
55222;SDS011;41090;48.632;12.428;2023-05-10T15:05:36;3.57;;;1.50;;
55222;SDS011;41090;48.632;12.428;2023-05-10T15:08:02;2.47;;;1.47;;
55222;SDS011;41090;48.632;12.428;2023-05-10T15:10:27;3.27;;;1.50;;
55222;SDS011;41090;48.632;12.428;2023-05-10T15:12:54;2.60;;;1.60;;
55222;SDS011;41090;48.632;12.428;2023-05-10T15:15:19;1.77;;;1.67;;
55222;SDS011;41090;48.632;12.428;2023-05-10T15:17:44;3.00;;;1.50;;
55222;SDS011;41090;48.632;12.428;2023-05-10T15:20:10;2.33;;;1.60;;
55222;SDS011;41090;48.632;12.428;2023-05-10T15:22:36;1.83;;;1.60;;
55222;SDS011;41090;48.632;12.428;2023-05-10T15:25:01;3.13;;;1.80;;
55222;SDS011;41090;48.632;12.428;2023-05-10T15:27:26;4.03;;;1.90;;
55222;SDS011;41090;48.632;12.428;2023-05-10T15:29:52;2.33;;;1.70;;